M I D A S
Marine Information and Data Acquisition System
Tripno 868 of the Zeeleeuw from 2005-03-22 08:14:00 to 2005-03-22 13:26:49
Back to CruiseResearch ActivitiesStationsMapUnderway DataData graphs

EquipmentUnitsComments
TimeDGPSUTC
LatitudeDGPSDM.mWGS84
LongitudeDGPSDM.mWGS84
SpeedMeteo Stationm/sRelative wind speed
DirectionMeteo StationdegRelative wind direction
TemperatureMeteo Stationdeg CelciusAir temperature
PressureMeteo StationPaAtmospheric pressure
HumidityMeteo Station%Relative humidity
Missing or incorrect values are displayed as -999
Metereological data collected by the RV Zeeleeuw from 2005-03-22 08:12:02 to 2005-03-22 13:35:43
Time Latitude Longitude Speed Direction Temperature Pressure Humidity
2005-03-22 08:13 51°13.613 2°56.037 4.9 87 13 100530 60
2005-03-22 08:14 51°13.646 2°55.942 1.9 87 13 100530 60
2005-03-22 08:15 51°13.684 2°55.844 4.7 87 13.1 100530 60
2005-03-22 08:16 51°13.7 2°55.74 4.9 108 13.1 100520 59
2005-03-22 08:17 51°13.718 2°55.743 6 179 13.1 100520 59
2005-03-22 08:18 51°13.738 2°55.724 5.6 220 13.1 100530 59
2005-03-22 08:19 51°13.821 2°55.64 3.3 209 13.2 100530 59
2005-03-22 08:20 51°13.936 2°55.554 1.2 202 13.2 100530 59
2005-03-22 08:21 51°14.058 2°55.467 1.4 189 13.3 100530 59
2005-03-22 08:22 51°14.174 2°55.36 2.5 259 13.3 100530 59
2005-03-22 08:23 51°14.274 2°55.205 2.2 252 13.3 100530 58
2005-03-22 08:24 51°14.361 2°55.036 1.4 8 13.3 100520 58
2005-03-22 08:25 51°14.48 2°54.824 6 299 13.3 100520 58
2005-03-22 08:26 51°14.51 2°54.508 9.5 303 13.3 100510 58
2005-03-22 08:27 51°14.459 2°54.182 11 323 13.2 100480 59
2005-03-22 08:28 51°14.358 2°53.888 12 327 13.1 100480 59
2005-03-22 08:29 51°14.246 2°53.601 13.8 227 13 100470 60
2005-03-22 08:30 51°14.137 2°53.312 13.7 229 12.9 100450 60
2005-03-22 08:31 51°14.027 2°53.023 12.9 318 12.9 100460 60
2005-03-22 08:32 51°13.917 2°52.732 11.5 42 12.9 100460 61
2005-03-22 08:33 51°13.808 2°52.439 13.7 311 12.8 100460 61
2005-03-22 08:34 51°13.699 2°52.147 12.4 314 12.8 100470 61
2005-03-22 08:35 51°13.591 2°51.855 10.8 317 12.8 100480 62
2005-03-22 08:36 51°13.482 2°51.563 10.9 318 12.7 100480 62
2005-03-22 08:37 51°13.374 2°51.272 10.8 318 12.6 100470 63
2005-03-22 08:38 51°13.267 2°50.981 11.2 42 12.7 100460 63
2005-03-22 08:39 51°13.159 2°50.69 12.2 317 12.7 100470 63
2005-03-22 08:40 51°13.052 2°50.4 11.5 316 12.7 100460 63
2005-03-22 08:41 51°12.944 2°50.111 11.1 316 12.6 100450 63
2005-03-22 08:42 51°12.836 2°49.821 12.5 318 12.6 100450 64
2005-03-22 08:43 51°12.729 2°49.531 12.9 318 12.6 100460 63
2005-03-22 08:44 51°12.624 2°49.249 13.3 231 12.7 100450 63
2005-03-22 08:45 51°12.517 2°48.958 12.6 321 12.6 100460 64
2005-03-22 08:46 51°12.41 2°48.671 11.3 319 12.7 100460 63
2005-03-22 08:47 51°12.304 2°48.383 13.4 318 12.7 100450 63
2005-03-22 08:48 51°12.199 2°48.096 13 42 12.7 100450 63
2005-03-22 08:49 51°12.092 2°47.811 11 318 12.7 100450 63
2005-03-22 08:50 51°11.985 2°47.526 12.1 322 12.7 100450 63
2005-03-22 08:51 51°11.895 2°47.231 9.9 43 12.8 100460 63
2005-03-22 08:52 51°11.82 2°46.923 10.9 316 12.7 100470 64
2005-03-22 08:53 51°11.738 2°46.619 12.4 227 12.7 100470 64
2005-03-22 08:54 51°11.657 2°46.314 10.6 42 12.6 100460 64
2005-03-22 08:55 51°11.575 2°46.01 10.6 313 12.6 100460 64
2005-03-22 08:56 51°11.504 2°45.7 9.7 43 12.7 100460 64
2005-03-22 08:57 51°11.431 2°45.387 12 227 12.7 100450 63
2005-03-22 08:58 51°11.359 2°45.078 11.2 314 12.7 100450 63
2005-03-22 08:59 51°11.286 2°44.769 11.4 308 12.6 100450 64
2005-03-22 09:00 51°11.213 2°44.46 11.5 314 12.6 100450 64
2005-03-22 09:01 51°11.142 2°44.153 10.9 313 12.5 100450 65
2005-03-22 09:02 51°11.074 2°43.838 11.1 306 12.5 100440 64
2005-03-22 09:03 51°11.021 2°43.521 10.6 306 12.5 100450 65
2005-03-22 09:04 51°10.974 2°43.198 10.7 307 12.4 100450 65
2005-03-22 09:05 51°10.932 2°42.875 10.1 305 12.4 100450 65
2005-03-22 09:06 51°10.876 2°42.561 11.4 313 12.3 100440 65
2005-03-22 09:07 51°10.807 2°42.249 11.8 307 12.3 100440 66
2005-03-22 09:08 51°10.734 2°41.945 11.5 314 12.3 100440 66
2005-03-22 09:09 51°10.637 2°41.656 12.4 312 12.2 100430 66
2005-03-22 09:10 51°10.543 2°41.368 12.2 309 12.2 100430 66
2005-03-22 09:11 51°10.469 2°41.066 11.9 306 12.2 100440 66
2005-03-22 09:12 51°10.401 2°40.763 10.3 306 12.2 100440 66
2005-03-22 09:13 51°10.329 2°40.457 10.3 304 12.1 100440 67
2005-03-22 09:14 51°10.263 2°40.149 11.3 303 12.1 100440 67
2005-03-22 09:15 51°10.204 2°39.837 10.4 305 12.1 100430 66
2005-03-22 09:16 51°10.147 2°39.526 9.6 309 12.1 100440 66
2005-03-22 09:17 51°10.087 2°39.215 9.9 306 12.1 100450 67
2005-03-22 09:18 51°10.028 2°38.907 9.3 310 12 100450 67
2005-03-22 09:19 51°9.969 2°38.594 10.5 311 12 100440 67
2005-03-22 09:20 51°9.912 2°38.283 9.5 43 11.9 100450 67
2005-03-22 09:21 51°9.855 2°37.973 10.7 315 11.9 100460 68
2005-03-22 09:22 51°9.798 2°37.667 10.9 43 11.9 100460 68
2005-03-22 09:23 51°9.743 2°37.354 9.1 318 12 100460 67
2005-03-22 09:24 51°9.688 2°37.045 9.1 327 11.9 100460 68
2005-03-22 09:25 51°9.633 2°36.739 10.6 326 11.9 100480 68
2005-03-22 09:26 51°9.578 2°36.434 8.6 328 11.9 100490 68
2005-03-22 09:27 51°9.524 2°36.129 10.3 328 11.9 100490 68
2005-03-22 09:28 51°9.47 2°35.822 9.7 327 11.9 100480 68
2005-03-22 09:29 51°9.414 2°35.513 9.3 328 11.9 100470 68
2005-03-22 09:30 51°9.361 2°35.209 8.8 322 11.9 100480 68
2005-03-22 09:31 51°9.306 2°34.906 8.3 319 11.9 100470 68
2005-03-22 09:32 51°9.252 2°34.595 9 322 12 100480 68
2005-03-22 09:33 51°9.198 2°34.285 8.5 329 11.9 100480 68
2005-03-22 09:34 51°9.141 2°33.986 8.1 321 11.9 100480 69
2005-03-22 09:35 51°9.079 2°33.681 8.5 323 12 100470 68
2005-03-22 09:36 51°9.019 2°33.38 8.5 325 11.9 100480 68
2005-03-22 09:37 51°8.968 2°33.145 7 308 11.8 100480 68
2005-03-22 09:38 51°8.959 2°33.049 5.5 267 11.7 100490 69
2005-03-22 09:39 51°8.975 2°33.049 4 261 11.6 100490 69
2005-03-22 09:40 51°8.992 2°33.049 5.8 269 11.4 100490 70
2005-03-22 09:41 51°9.003 2°33.051 6.4 283 11.4 100490 70
2005-03-22 09:42 51°9.013 2°33.058 5.8 293 11.3 100490 71
2005-03-22 09:43 51°9.022 2°33.068 6.6 298 11.4 100490 70
2005-03-22 09:44 51°9.03 2°33.081 6.7 306 11.3 100490 70
2005-03-22 09:45 51°9.039 2°33.096 6.3 310 11.3 100490 71
2005-03-22 09:46 51°9.048 2°33.112 6.1 313 11.3 100490 71
2005-03-22 09:47 51°9.056 2°33.128 6.3 313 11.3 100490 71
2005-03-22 09:48 51°9.065 2°33.144 7 311 11.3 100500 71
2005-03-22 09:49 51°9.073 2°33.159 6.8 314 11.3 100490 71
2005-03-22 09:50 51°9.079 2°33.172 6.6 315 11.3 100500 71
2005-03-22 09:51 51°9.084 2°33.183 6.6 227 11.3 100500 71
2005-03-22 09:52 51°9.088 2°33.192 6.2 316 11.2 100500 71
2005-03-22 09:53 51°9.092 2°33.199 6.3 316 11.2 100500 72
2005-03-22 09:54 51°9.095 2°33.206 7.5 229 11.2 100500 72
2005-03-22 09:55 51°9.098 2°33.213 6.5 320 11.2 100510 72
2005-03-22 09:56 51°9.1 2°33.22 6.8 319 11.2 100510 71
2005-03-22 09:57 51°9.1 2°33.225 7.3 324 11.2 100500 72
2005-03-22 09:58 51°9.09 2°33.234 8.4 356 11.3 100510 72
2005-03-22 09:59 51°9.075 2°33.274 8.8 37 11.3 100510 71
2005-03-22 10:00 51°9.075 2°33.351 8.5 66 11.4 100510 71
2005-03-22 10:01 51°9.07 2°33.44 8.5 36 11.4 100520 71
2005-03-22 10:02 51°9.048 2°33.502 8.1 2 11.4 100520 71
2005-03-22 10:03 51°9.014 2°33.534 8.1 354 11.4 100530 71
2005-03-22 10:04 51°8.965 2°33.54 8.9 346 11.4 100520 71
2005-03-22 10:05 51°8.898 2°33.525 9.9 347 11.5 100520 71
2005-03-22 10:06 51°8.821 2°33.508 11.1 354 11.5 100520 71
2005-03-22 10:07 51°8.739 2°33.506 10.8 351 11.6 100520 71
2005-03-22 10:08 51°8.658 2°33.506 10.7 352 11.7 100520 70
2005-03-22 10:09 51°8.578 2°33.505 9.9 353 11.7 100530 70
2005-03-22 10:10 51°8.496 2°33.503 10.8 352 11.8 100530 70
2005-03-22 10:11 51°8.412 2°33.499 9.6 350 12 100530 70
2005-03-22 10:12 51°8.331 2°33.483 10 350 11.9 100530 69
2005-03-22 10:13 51°8.253 2°33.466 9.8 349 11.8 100530 70
2005-03-22 10:14 51°8.206 2°33.452 9.2 332 11.9 100530 70
2005-03-22 10:15 51°8.183 2°33.426 8.3 323 11.9 100530 69
2005-03-22 10:16 51°8.158 2°33.405 8.5 338 11.9 100530 70
2005-03-22 10:17 51°8.13 2°33.392 8.6 332 12 100540 69
2005-03-22 10:18 51°8.105 2°33.369 9.1 330 12.1 100540 69
2005-03-22 10:19 51°8.078 2°33.336 9 334 12.1 100530 69
2005-03-22 10:20 51°8.034 2°33.296 9.6 342 12.1 100530 69
2005-03-22 10:21 51°7.984 2°33.25 9.5 336 12.1 100540 69
2005-03-22 10:22 51°7.956 2°33.226 8.2 227 12.1 100540 69
2005-03-22 10:23 51°7.959 2°33.224 7.6 301 12.2 100540 69
2005-03-22 10:24 51°7.97 2°33.225 6.9 297 12.1 100550 69
2005-03-22 10:25 51°7.983 2°33.229 6.6 290 12 100550 69
2005-03-22 10:26 51°7.997 2°33.237 7.3 290 12 100560 69
2005-03-22 10:27 51°8.013 2°33.248 6.9 296 12.1 100560 69
2005-03-22 10:28 51°8.028 2°33.262 7.5 292 12 100560 69
2005-03-22 10:29 51°8.045 2°33.278 6.2 290 12 100560 70
2005-03-22 10:30 51°8.061 2°33.294 6.8 285 12 100560 70
2005-03-22 10:31 51°8.077 2°33.309 7.4 296 11.9 100560 70
2005-03-22 10:32 51°8.089 2°33.302 7.4 285 11.9 100560 70
2005-03-22 10:33 51°8.107 2°33.27 8.4 275 11.9 100560 70
2005-03-22 10:34 51°8.139 2°33.227 3.9 257 11.9 100560 70
2005-03-22 10:35 51°8.181 2°33.195 5.7 241 11.9 100570 70
2005-03-22 10:36 51°8.231 2°33.178 5.4 228 11.8 100560 70
2005-03-22 10:37 51°8.294 2°33.184 4.3 173 11.8 100560 70
2005-03-22 10:38 51°8.357 2°33.235 5.5 145 11.8 100570 70
2005-03-22 10:39 51°8.411 2°33.316 6.4 121 11.8 100570 71
2005-03-22 10:40 51°8.452 2°33.412 6.4 109 11.8 100570 71
2005-03-22 10:41 51°8.482 2°33.513 6.8 101 11.7 100570 71
2005-03-22 10:42 51°8.504 2°33.603 7 97 11.7 100560 71
2005-03-22 10:43 51°8.524 2°33.686 6.7 100 11.6 100570 71
2005-03-22 10:44 51°8.544 2°33.763 6.6 105 11.5 100560 72
2005-03-22 10:45 51°8.564 2°33.837 6.4 101 11.4 100570 72
2005-03-22 10:46 51°8.581 2°33.913 6.8 97 11.4 100570 72
2005-03-22 10:47 51°8.598 2°33.987 6.7 95 11.3 100570 73
2005-03-22 10:48 51°8.615 2°34.064 6.7 94 11.4 100570 73
2005-03-22 10:49 51°8.632 2°34.139 7.3 96 11.5 100570 73
2005-03-22 10:50 51°8.65 2°34.216 7 97 11.4 100570 72
2005-03-22 10:51 51°8.668 2°34.294 6.8 96 11.5 100570 72
2005-03-22 10:52 51°8.686 2°34.374 7.1 101 11.6 100570 71
2005-03-22 10:53 51°8.705 2°34.453 5.9 102 11.5 100570 72
2005-03-22 10:54 51°8.727 2°34.532 6.9 108 11.5 100570 72
2005-03-22 10:55 51°8.751 2°34.611 6.8 109 11.5 100570 73
2005-03-22 10:56 51°8.776 2°34.688 7.8 110 11.6 100570 72
2005-03-22 10:57 51°8.8 2°34.767 6.5 106 11.7 100570 72
2005-03-22 10:58 51°8.822 2°34.845 6.4 105 11.8 100570 71
2005-03-22 10:59 51°8.845 2°34.926 6 109 11.7 100580 71
2005-03-22 11:00 51°8.867 2°35.006 5.8 111 11.7 100570 73
2005-03-22 11:01 51°8.89 2°35.087 6 104 11.7 100580 72
2005-03-22 11:02 51°8.913 2°35.169 5.9 113 11.7 100580 73
2005-03-22 11:03 51°8.937 2°35.251 6.4 113 11.8 100580 73
2005-03-22 11:04 51°8.96 2°35.333 5.2 114 11.9 100580 72
2005-03-22 11:05 51°8.983 2°35.417 5.2 118 11.8 100580 71
2005-03-22 11:06 51°9.007 2°35.497 6.7 124 11.8 100580 73
2005-03-22 11:07 51°9.032 2°35.58 6.5 123 11.9 100580 73
2005-03-22 11:08 51°9.059 2°35.659 6 127 12.1 100580 72
2005-03-22 11:09 51°9.086 2°35.736 6.1 124 12.2 100580 72
2005-03-22 11:10 51°9.111 2°35.808 6 122 12.4 100580 71
2005-03-22 11:11 51°9.135 2°35.88 6.5 124 12.2 100590 70
2005-03-22 11:12 51°9.159 2°35.947 6.3 132 12.3 100580 73
2005-03-22 11:13 51°9.187 2°36.026 6.8 113 12.5 100580 71
2005-03-22 11:14 51°9.21 2°36.123 6.7 108 12.4 100580 71
2005-03-22 11:15 51°9.227 2°36.226 6.4 98 12.5 100590 70
2005-03-22 11:16 51°9.243 2°36.344 6.8 94 12.3 100590 71
2005-03-22 11:17 51°9.261 2°36.482 6.7 93 12.2 100590 71
2005-03-22 11:18 51°9.274 2°36.612 6.7 90 12.2 100590 73
2005-03-22 11:19 51°9.277 2°36.712 7.1 82 12.3 100590 72
2005-03-22 11:20 51°9.278 2°36.795 6.7 82 12.3 100600 72
2005-03-22 11:21 51°9.264 2°36.926 6.3 73 12.3 100590 73
2005-03-22 11:22 51°9.253 2°37.129 7.5 87 12.3 100590 73
2005-03-22 11:23 51°9.296 2°37.34 5.3 112 12.3 100600 72
2005-03-22 11:24 51°9.388 2°37.489 3.1 158 12.4 100610 72
2005-03-22 11:25 51°9.46 2°37.559 4.2 183 12.5 100610 72
2005-03-22 11:26 51°9.532 2°37.581 5 265 12.7 100610 71
2005-03-22 11:27 51°9.57 2°37.458 9.5 324 12.8 100590 70
2005-03-22 11:28 51°9.546 2°37.172 12.2 336 12.7 100580 71
2005-03-22 11:29 51°9.468 2°36.891 12.7 343 12.5 100590 71
2005-03-22 11:30 51°9.392 2°36.597 11.8 342 12.5 100590 72
2005-03-22 11:31 51°9.33 2°36.301 11.6 345 12.3 100590 73
2005-03-22 11:32 51°9.269 2°35.996 12.3 343 12.2 100580 74
2005-03-22 11:33 51°9.21 2°35.69 12.1 343 12.2 100590 75
2005-03-22 11:34 51°9.151 2°35.382 12.7 344 12.2 100590 75
2005-03-22 11:35 51°9.093 2°35.077 12 348 12.2 100590 75
2005-03-22 11:36 51°9.036 2°34.763 13 346 12 100590 75
2005-03-22 11:37 51°8.979 2°34.454 14.4 345 12 100590 76
2005-03-22 11:38 51°8.913 2°34.194 11.4 352 12.1 100600 76
2005-03-22 11:39 51°8.883 2°34.144 8 15 12 100610 77
2005-03-22 11:40 51°8.876 2°34.155 9.7 21 12 100610 78
2005-03-22 11:41 51°8.875 2°34.178 9.3 31 12.1 100610 79
2005-03-22 11:42 51°8.872 2°34.209 9.8 60 12.1 100620 80
2005-03-22 11:43 51°8.867 2°34.252 8.4 74 12.1 100620 81
2005-03-22 11:44 51°8.859 2°34.294 9.5 57 12 100620 81
2005-03-22 11:45 51°8.838 2°34.311 9.4 25 12 100620 82
2005-03-22 11:46 51°8.821 2°34.295 9.3 1 11.9 100630 82
2005-03-22 11:47 51°8.816 2°34.247 9.5 344 11.7 100630 82
2005-03-22 11:48 51°8.837 2°34.183 10.7 315 11.6 100620 83
2005-03-22 11:49 51°8.88 2°34.126 10.4 307 11.5 100630 83
2005-03-22 11:50 51°8.939 2°34.084 9.4 294 11.3 100640 83
2005-03-22 11:51 51°9.004 2°34.056 8.8 298 11.2 100640 84
2005-03-22 11:52 51°9.071 2°34.035 9.6 288 11 100640 84
2005-03-22 11:53 51°9.144 2°34.036 7.6 266 10.9 100640 85
2005-03-22 11:54 51°9.219 2°34.081 6.7 236 10.7 100660 85
2005-03-22 11:55 51°9.279 2°34.172 4.5 185 10.6 100660 87
2005-03-22 11:56 51°9.308 2°34.292 6.5 149 10.7 100670 88
2005-03-22 11:57 51°9.311 2°34.402 7.3 137 10.6 100670 88
2005-03-22 11:58 51°9.304 2°34.499 8.2 125 10.5 100670 89
2005-03-22 11:59 51°9.293 2°34.592 9 126 10.4 100670 91
2005-03-22 12:00 51°9.278 2°34.678 7.8 120 10.4 100670 92
2005-03-22 12:01 51°9.261 2°34.764 7.5 124 10.3 100680 92
2005-03-22 12:02 51°9.246 2°34.851 7.5 120 10.2 100680 93
2005-03-22 12:03 51°9.228 2°34.937 8 112 10.2 100680 94
2005-03-22 12:04 51°9.206 2°35.013 8.7 108 10.3 100680 95
2005-03-22 12:05 51°9.185 2°35.091 8.6 123 10.3 100690 95
2005-03-22 12:06 51°9.165 2°35.174 8.9 118 10.4 100690 96
2005-03-22 12:07 51°9.145 2°35.255 8.9 120 10.5 100690 96
2005-03-22 12:08 51°9.13 2°35.341 8.4 122 10.5 100690 96
2005-03-22 12:09 51°9.117 2°35.432 7.4 117 10.5 100680 96
2005-03-22 12:10 51°9.103 2°35.522 7.7 121 10.4 100680 96
2005-03-22 12:11 51°9.089 2°35.611 6.6 123 10.3 100680 96
2005-03-22 12:12 51°9.076 2°35.7 6.7 125 10.3 100690 96
2005-03-22 12:13 51°9.065 2°35.794 6.9 129 10.3 100690 97
2005-03-22 12:14 51°9.055 2°35.884 6.6 133 10.3 100690 97
2005-03-22 12:15 51°9.046 2°35.976 6.5 130 10.3 100690 97
2005-03-22 12:16 51°9.031 2°36.062 6.7 116 10.2 100690 97
2005-03-22 12:17 51°9.005 2°36.128 7.5 94 10.3 100690 98
2005-03-22 12:18 51°8.974 2°36.167 7.3 67 10.3 100690 98
2005-03-22 12:19 51°8.951 2°36.185 7.9 60 10.3 100690 98
2005-03-22 12:20 51°8.938 2°36.202 7.6 62 10.2 100690 98
2005-03-22 12:21 51°8.93 2°36.22 7.4 66 10.1 100690 98
2005-03-22 12:22 51°8.918 2°36.244 8 88 10.2 100690 98
2005-03-22 12:23 51°8.907 2°36.366 2.9 176 10.3 100690 99
2005-03-22 12:24 51°8.997 2°36.628 2.1 307 10.4 100700 99
2005-03-22 12:25 51°9.114 2°36.951 0.6 318 10.4 100700 98
2005-03-22 12:26 51°9.201 2°37.294 1 38 10.5 100690 99
2005-03-22 12:27 51°9.293 2°37.641 0.9 27 10.4 100690 98
2005-03-22 12:28 51°9.382 2°37.986 0.2 131 10.4 100690 99
2005-03-22 12:29 51°9.472 2°38.332 0.7 77 10.4 100700 99
2005-03-22 12:30 51°9.56 2°38.674 0.6 121 10.4 100700 98
2005-03-22 12:31 51°9.65 2°39.025 0.6 70 10.4 100700 99
2005-03-22 12:32 51°9.738 2°39.365 0.8 52 10.3 100700 98
2005-03-22 12:33 51°9.826 2°39.71 0.9 76 10.2 100700 98
2005-03-22 12:34 51°9.914 2°40.053 1.2 66 10.1 100700 98
2005-03-22 12:35 51°10.001 2°40.397 1.2 101 10.1 100700 98
2005-03-22 12:36 51°10.089 2°40.743 1.5 84 10 100700 99
2005-03-22 12:37 51°10.179 2°41.093 1.2 90 10.1 100700 99
2005-03-22 12:38 51°10.267 2°41.441 1.8 78 10 100700 99
2005-03-22 12:39 51°10.354 2°41.784 1.4 60 10 100700 99
2005-03-22 12:40 51°10.443 2°42.143 1.5 61 10 100700 99
2005-03-22 12:41 51°10.53 2°42.492 1.8 56 9.9 100700 99
2005-03-22 12:42 51°10.618 2°42.84 1.5 47 9.9 100700 99
2005-03-22 12:43 51°10.706 2°43.188 2.2 37 9.9 100700 99
2005-03-22 12:44 51°10.795 2°43.536 1.5 47 9.8 100700 99
2005-03-22 12:45 51°10.884 2°43.89 1.6 33 9.8 100700 99
2005-03-22 12:46 51°10.97 2°44.233 1.8 30 9.7 100700 100
2005-03-22 12:47 51°11.059 2°44.583 1.6 35 9.7 100700 100
2005-03-22 12:48 51°11.166 2°44.915 1.3 6 9.6 100700 100
2005-03-22 12:49 51°11.28 2°45.24 1.2 16 9.7 100700 100
2005-03-22 12:50 51°11.391 2°45.567 1.5 23 9.7 100700 100
2005-03-22 12:51 51°11.502 2°45.896 1.9 21 9.6 100700 100
2005-03-22 12:52 51°11.614 2°46.226 1.6 19 9.6 100700 100
2005-03-22 12:53 51°11.726 2°46.56 1.5 19 9.6 100710 100
2005-03-22 12:54 51°11.838 2°46.889 1.5 16 9.6 100710 100
2005-03-22 12:55 51°11.958 2°47.205 1.5 16 9.6 100710 100
2005-03-22 12:56 51°12.081 2°47.523 1.8 18 9.6 100710 100
2005-03-22 12:57 51°12.202 2°47.844 2 19 9.6 100710 100
2005-03-22 12:58 51°12.326 2°48.169 1.7 24 9.5 100720 100
2005-03-22 12:59 51°12.45 2°48.49 1.7 15 9.5 100710 100
2005-03-22 13:00 51°12.572 2°48.812 1.9 16 9.5 100710 100
2005-03-22 13:01 51°12.697 2°49.133 2.2 19 9.5 100710 100
2005-03-22 13:02 51°12.819 2°49.449 2.1 22 9.5 100710 100
2005-03-22 13:03 51°12.943 2°49.771 2 19 9.5 100710 100
2005-03-22 13:04 51°13.07 2°50.095 4.6 21 9.4 100710 100
2005-03-22 13:05 51°13.199 2°50.416 2.9 20 9.2 100710 100
2005-03-22 13:06 51°13.324 2°50.729 2.1 33 9.2 100710 100
2005-03-22 13:07 51°13.431 2°50.932 1.1 244 9.2 100710 100
2005-03-22 13:08 51°13.5 2°51.061 2.6 181 9.3 100710 100
2005-03-22 13:09 51°13.511 2°51.087 3.5 197 9.5 100700 100
2005-03-22 13:10 51°13.517 2°51.1 4.1 203 9.9 100710 100
2005-03-22 13:11 51°13.524 2°51.119 3 194 10.2 100710 100
2005-03-22 13:12 51°13.564 2°51.199 1 241 10.5 100700 100
2005-03-22 13:13 51°13.683 2°51.478 2.3 12 10.5 100700 100
2005-03-22 13:14 51°13.795 2°51.796 2.4 27 10.3 100700 100
2005-03-22 13:15 51°13.904 2°52.117 2.4 26 10 100710 100
2005-03-22 13:16 51°14.012 2°52.443 2.5 23 9.9 100700 100
2005-03-22 13:17 51°14.118 2°52.768 2.6 19 9.7 100700 100
2005-03-22 13:18 51°14.224 2°53.091 2.8 17 9.6 100700 100
2005-03-22 13:19 51°14.317 2°53.433 3.2 27 9.5 100690 100
2005-03-22 13:20 51°14.384 2°53.778 3.7 30 9.4 100690 100
2005-03-22 13:21 51°14.438 2°54.13 4.3 33 9.3 100690 100
2005-03-22 13:22 51°14.452 2°54.482 4.4 49 9.3 100690 100
2005-03-22 13:23 51°14.409 2°54.789 5 60 9.4 100690 100
2005-03-22 13:24 51°14.347 2°55.034 3.8 75 9.5 100690 100
2005-03-22 13:25 51°14.293 2°55.202 4.4 61 9.5 100700 100
2005-03-22 13:26 51°14.217 2°55.336 4.5 49 9.7 100690 100
2005-03-22 13:27 51°14.113 2°55.427 4.4 35 10.8 100690 100
2005-03-22 13:28 51°14.001 2°55.51 4.8 26 11.5 100700 100
2005-03-22 13:29 51°13.888 2°55.594 5 8 12 100710 100
2005-03-22 13:30 51°13.778 2°55.688 5 32 12.3 100700 100
2005-03-22 13:31 51°13.714 2°55.796 4.1 54 12.6 100710 100
2005-03-22 13:32 51°13.671 2°55.892 3.6 49 12.8 100710 100
2005-03-22 13:33 51°13.63 2°55.98 1.7 64 13 100710 100
2005-03-22 13:34 51°13.607 2°56.055 2.2 63 13 100720 100
2005-03-22 13:35 51°13.596 2°56.099 3.7 125 13.1 100720 100